sensor_id;sensor_type;location;lat;lon;timestamp;P1;durP1;ratioP1;P2;durP2;ratioP2
3036;SDS011;1528;52.550;13.408;2022-12-29T00:01:19;11.60;;;11.00;;
3036;SDS011;1528;52.550;13.408;2022-12-29T00:04:05;12.03;;;11.23;;
3036;SDS011;1528;52.550;13.408;2022-12-29T00:06:51;9.83;;;9.43;;
3036;SDS011;1528;52.550;13.408;2022-12-29T00:09:37;10.23;;;9.83;;
3036;SDS011;1528;52.550;13.408;2022-12-29T00:12:23;10.90;;;10.50;;
3036;SDS011;1528;52.550;13.408;2022-12-29T00:15:10;10.90;;;10.50;;
3036;SDS011;1528;52.550;13.408;2022-12-29T00:18:13;12.07;;;11.57;;
3036;SDS011;1528;52.550;13.408;2022-12-29T00:20:59;9.90;;;9.60;;
3036;SDS011;1528;52.550;13.408;2022-12-29T00:24:02;10.23;;;9.83;;
3036;SDS011;1528;52.550;13.408;2022-12-29T00:27:12;11.10;;;10.50;;
3036;SDS011;1528;52.550;13.408;2022-12-29T00:30:17;8.90;;;8.60;;
3036;SDS011;1528;52.550;13.408;2022-12-29T00:33:22;9.10;;;8.70;;
3036;SDS011;1528;52.550;13.408;2022-12-29T00:36:31;9.30;;;8.90;;
3036;SDS011;1528;52.550;13.408;2022-12-29T00:39:20;10.60;;;10.03;;
3036;SDS011;1528;52.550;13.408;2022-12-29T00:42:23;11.77;;;11.03;;
3036;SDS011;1528;52.550;13.408;2022-12-29T00:45:27;10.23;;;9.83;;
3036;SDS011;1528;52.550;13.408;2022-12-29T00:48:12;11.03;;;10.43;;
3036;SDS011;1528;52.550;13.408;2022-12-29T00:50:58;8.67;;;8.27;;
3036;SDS011;1528;52.550;13.408;2022-12-29T00:53:42;11.23;;;10.73;;
3036;SDS011;1528;52.550;13.408;2022-12-29T00:56:28;10.43;;;9.90;;
3036;SDS011;1528;52.550;13.408;2022-12-29T00:59:14;10.43;;;10.03;;
3036;SDS011;1528;52.550;13.408;2022-12-29T01:02:02;11.70;;;11.17;;
3036;SDS011;1528;52.550;13.408;2022-12-29T01:04:48;15.40;;;14.80;;
3036;SDS011;1528;52.550;13.408;2022-12-29T01:07:34;13.67;;;13.17;;
3036;SDS011;1528;52.550;13.408;2022-12-29T01:10:20;14.17;;;13.37;;
3036;SDS011;1528;52.550;13.408;2022-12-29T01:13:04;15.53;;;15.03;;
3036;SDS011;1528;52.550;13.408;2022-12-29T01:15:50;18.10;;;17.50;;
3036;SDS011;1528;52.550;13.408;2022-12-29T01:18:37;16.90;;;16.20;;
3036;SDS011;1528;52.550;13.408;2022-12-29T01:21:22;13.47;;;12.83;;
3036;SDS011;1528;52.550;13.408;2022-12-29T01:24:08;12.70;;;12.20;;
3036;SDS011;1528;52.550;13.408;2022-12-29T01:26:54;12.97;;;12.47;;
3036;SDS011;1528;52.550;13.408;2022-12-29T01:29:39;14.87;;;14.27;;
3036;SDS011;1528;52.550;13.408;2022-12-29T01:32:25;15.20;;;14.70;;
3036;SDS011;1528;52.550;13.408;2022-12-29T01:35:12;14.70;;;13.97;;
3036;SDS011;1528;52.550;13.408;2022-12-29T01:37:57;13.03;;;12.43;;
3036;SDS011;1528;52.550;13.408;2022-12-29T01:40:43;13.13;;;12.70;;
3036;SDS011;1528;52.550;13.408;2022-12-29T01:43:38;13.83;;;13.33;;
3036;SDS011;1528;52.550;13.408;2022-12-29T01:46:25;13.27;;;12.77;;
3036;SDS011;1528;52.550;13.408;2022-12-29T01:49:14;14.43;;;13.67;;
3036;SDS011;1528;52.550;13.408;2022-12-29T01:52:05;14.53;;;14.03;;
3036;SDS011;1528;52.550;13.408;2022-12-29T01:54:52;13.10;;;12.57;;
3036;SDS011;1528;52.550;13.408;2022-12-29T01:57:40;14.00;;;13.50;;
3036;SDS011;1528;52.550;13.408;2022-12-29T02:00:31;12.60;;;12.00;;
3036;SDS011;1528;52.550;13.408;2022-12-29T02:03:17;12.57;;;12.07;;
3036;SDS011;1528;52.550;13.408;2022-12-29T02:06:07;13.53;;;13.03;;
3036;SDS011;1528;52.550;13.408;2022-12-29T02:08:58;16.13;;;15.57;;
3036;SDS011;1528;52.550;13.408;2022-12-29T02:11:44;12.53;;;12.00;;
3036;SDS011;1528;52.550;13.408;2022-12-29T02:14:31;11.80;;;11.40;;
3036;SDS011;1528;52.550;13.408;2022-12-29T02:17:18;15.10;;;14.50;;
3036;SDS011;1528;52.550;13.408;2022-12-29T02:23:38;15.60;;;15.00;;
3036;SDS011;1528;52.550;13.408;2022-12-29T02:27:01;13.93;;;13.43;;
3036;SDS011;1528;52.550;13.408;2022-12-29T02:30:29;13.20;;;12.60;;
3036;SDS011;1528;52.550;13.408;2022-12-29T02:33:24;12.90;;;12.40;;
3036;SDS011;1528;52.550;13.408;2022-12-29T02:36:21;14.80;;;14.30;;
3036;SDS011;1528;52.550;13.408;2022-12-29T02:39:15;14.73;;;14.30;;
3036;SDS011;1528;52.550;13.408;2022-12-29T02:42:09;13.27;;;12.77;;
3036;SDS011;1528;52.550;13.408;2022-12-29T02:44:59;13.73;;;13.13;;
3036;SDS011;1528;52.550;13.408;2022-12-29T02:47:53;12.70;;;12.20;;
3036;SDS011;1528;52.550;13.408;2022-12-29T02:50:42;15.03;;;14.33;;
3036;SDS011;1528;52.550;13.408;2022-12-29T02:53:33;13.13;;;12.53;;
3036;SDS011;1528;52.550;13.408;2022-12-29T02:56:38;14.77;;;14.27;;
3036;SDS011;1528;52.550;13.408;2022-12-29T02:59:24;11.53;;;11.13;;
3036;SDS011;1528;52.550;13.408;2022-12-29T03:05:32;13.83;;;13.30;;
3036;SDS011;1528;52.550;13.408;2022-12-29T03:08:34;13.27;;;12.77;;
3036;SDS011;1528;52.550;13.408;2022-12-29T03:11:30;13.73;;;13.23;;
3036;SDS011;1528;52.550;13.408;2022-12-29T03:14:46;9.40;;;9.00;;
3036;SDS011;1528;52.550;13.408;2022-12-29T03:17:55;13.20;;;12.70;;
3036;SDS011;1528;52.550;13.408;2022-12-29T03:20:49;13.80;;;13.30;;
3036;SDS011;1528;52.550;13.408;2022-12-29T03:23:39;14.37;;;13.87;;
3036;SDS011;1528;52.550;13.408;2022-12-29T03:26:27;12.83;;;12.33;;
3036;SDS011;1528;52.550;13.408;2022-12-29T03:29:15;15.47;;;14.77;;
3036;SDS011;1528;52.550;13.408;2022-12-29T03:32:03;12.27;;;11.83;;
3036;SDS011;1528;52.550;13.408;2022-12-29T03:34:51;12.07;;;11.40;;
3036;SDS011;1528;52.550;13.408;2022-12-29T03:37:41;12.67;;;12.17;;
3036;SDS011;1528;52.550;13.408;2022-12-29T03:40:30;12.47;;;11.97;;
3036;SDS011;1528;52.550;13.408;2022-12-29T03:43:18;13.10;;;12.50;;
3036;SDS011;1528;52.550;13.408;2022-12-29T03:46:04;13.73;;;13.33;;
3036;SDS011;1528;52.550;13.408;2022-12-29T03:48:50;14.20;;;13.50;;
3036;SDS011;1528;52.550;13.408;2022-12-29T03:51:36;13.47;;;13.03;;
3036;SDS011;1528;52.550;13.408;2022-12-29T03:54:23;11.20;;;10.80;;
3036;SDS011;1528;52.550;13.408;2022-12-29T03:57:09;13.93;;;13.33;;
3036;SDS011;1528;52.550;13.408;2022-12-29T03:59:56;12.97;;;12.47;;
3036;SDS011;1528;52.550;13.408;2022-12-29T04:02:41;13.03;;;12.53;;
3036;SDS011;1528;52.550;13.408;2022-12-29T04:05:27;13.90;;;13.30;;
3036;SDS011;1528;52.550;13.408;2022-12-29T04:08:12;13.97;;;13.43;;
3036;SDS011;1528;52.550;13.408;2022-12-29T04:11:00;12.20;;;11.70;;
3036;SDS011;1528;52.550;13.408;2022-12-29T04:13:45;14.70;;;14.20;;
3036;SDS011;1528;52.550;13.408;2022-12-29T04:16:31;11.00;;;10.60;;
3036;SDS011;1528;52.550;13.408;2022-12-29T04:19:19;11.67;;;11.27;;
3036;SDS011;1528;52.550;13.408;2022-12-29T04:22:04;11.30;;;10.80;;
3036;SDS011;1528;52.550;13.408;2022-12-29T04:24:50;13.00;;;12.50;;
3036;SDS011;1528;52.550;13.408;2022-12-29T04:27:37;13.93;;;13.43;;
3036;SDS011;1528;52.550;13.408;2022-12-29T04:30:22;12.07;;;11.57;;
3036;SDS011;1528;52.550;13.408;2022-12-29T04:33:08;11.60;;;10.90;;
3036;SDS011;1528;52.550;13.408;2022-12-29T04:35:54;12.13;;;11.73;;
3036;SDS011;1528;52.550;13.408;2022-12-29T04:38:39;12.17;;;11.77;;
3036;SDS011;1528;52.550;13.408;2022-12-29T04:41:25;15.77;;;15.27;;
3036;SDS011;1528;52.550;13.408;2022-12-29T04:44:12;13.40;;;12.90;;
3036;SDS011;1528;52.550;13.408;2022-12-29T04:46:57;13.13;;;12.70;;
3036;SDS011;1528;52.550;13.408;2022-12-29T04:49:43;13.03;;;12.63;;
3036;SDS011;1528;52.550;13.408;2022-12-29T04:52:29;11.73;;;11.27;;
3036;SDS011;1528;52.550;13.408;2022-12-29T04:55:15;9.93;;;9.50;;
3036;SDS011;1528;52.550;13.408;2022-12-29T04:58:00;12.30;;;11.83;;
3036;SDS011;1528;52.550;13.408;2022-12-29T05:00:47;11.70;;;11.20;;
3036;SDS011;1528;52.550;13.408;2022-12-29T05:03:32;11.40;;;11.00;;
3036;SDS011;1528;52.550;13.408;2022-12-29T05:06:18;14.10;;;13.60;;
3036;SDS011;1528;52.550;13.408;2022-12-29T05:09:04;11.83;;;11.33;;
3036;SDS011;1528;52.550;13.408;2022-12-29T05:11:49;11.70;;;11.20;;
3036;SDS011;1528;52.550;13.408;2022-12-29T05:14:35;15.97;;;15.07;;
3036;SDS011;1528;52.550;13.408;2022-12-29T05:17:22;15.00;;;14.50;;
3036;SDS011;1528;52.550;13.408;2022-12-29T05:20:07;15.73;;;15.20;;
3036;SDS011;1528;52.550;13.408;2022-12-29T05:22:54;16.47;;;15.97;;
3036;SDS011;1528;52.550;13.408;2022-12-29T05:25:39;12.20;;;11.80;;
3036;SDS011;1528;52.550;13.408;2022-12-29T05:28:25;9.27;;;8.90;;
3036;SDS011;1528;52.550;13.408;2022-12-29T05:31:11;12.20;;;11.67;;
3036;SDS011;1528;52.550;13.408;2022-12-29T05:33:58;11.57;;;11.17;;
3036;SDS011;1528;52.550;13.408;2022-12-29T05:36:43;12.03;;;11.27;;
3036;SDS011;1528;52.550;13.408;2022-12-29T05:39:29;12.73;;;12.33;;
3036;SDS011;1528;52.550;13.408;2022-12-29T05:42:15;10.40;;;10.00;;
3036;SDS011;1528;52.550;13.408;2022-12-29T05:45:00;13.00;;;12.50;;
3036;SDS011;1528;52.550;13.408;2022-12-29T05:47:46;15.30;;;14.80;;
3036;SDS011;1528;52.550;13.408;2022-12-29T05:50:33;14.83;;;14.27;;
3036;SDS011;1528;52.550;13.408;2022-12-29T05:53:18;12.17;;;11.77;;
3036;SDS011;1528;52.550;13.408;2022-12-29T05:56:04;12.20;;;11.70;;
3036;SDS011;1528;52.550;13.408;2022-12-29T05:58:50;14.10;;;13.60;;
3036;SDS011;1528;52.550;13.408;2022-12-29T06:01:36;12.20;;;11.80;;
3036;SDS011;1528;52.550;13.408;2022-12-29T06:04:22;10.23;;;9.83;;
3036;SDS011;1528;52.550;13.408;2022-12-29T06:07:09;9.90;;;9.50;;
3036;SDS011;1528;52.550;13.408;2022-12-29T06:09:54;10.60;;;10.17;;
3036;SDS011;1528;52.550;13.408;2022-12-29T06:12:40;9.83;;;9.43;;
3036;SDS011;1528;52.550;13.408;2022-12-29T06:15:26;9.50;;;9.10;;
3036;SDS011;1528;52.550;13.408;2022-12-29T06:18:11;9.67;;;9.20;;
3036;SDS011;1528;52.550;13.408;2022-12-29T06:20:59;9.90;;;9.50;;
3036;SDS011;1528;52.550;13.408;2022-12-29T06:23:47;10.73;;;10.33;;
3036;SDS011;1528;52.550;13.408;2022-12-29T06:26:32;11.17;;;10.67;;
3036;SDS011;1528;52.550;13.408;2022-12-29T06:29:18;9.77;;;9.37;;
3036;SDS011;1528;52.550;13.408;2022-12-29T06:32:04;9.47;;;9.00;;
3036;SDS011;1528;52.550;13.408;2022-12-29T06:34:49;8.57;;;8.23;;
3036;SDS011;1528;52.550;13.408;2022-12-29T06:37:35;10.70;;;10.30;;
3036;SDS011;1528;52.550;13.408;2022-12-29T06:40:22;11.00;;;10.50;;
3036;SDS011;1528;52.550;13.408;2022-12-29T06:43:08;13.20;;;12.80;;
3036;SDS011;1528;52.550;13.408;2022-12-29T06:45:53;12.23;;;11.73;;
3036;SDS011;1528;52.550;13.408;2022-12-29T06:48:39;14.07;;;13.67;;
3036;SDS011;1528;52.550;13.408;2022-12-29T06:51:25;12.87;;;12.27;;
3036;SDS011;1528;52.550;13.408;2022-12-29T06:54:11;14.13;;;13.53;;
3036;SDS011;1528;52.550;13.408;2022-12-29T06:56:59;12.77;;;12.27;;
3036;SDS011;1528;52.550;13.408;2022-12-29T06:59:44;11.33;;;11.03;;
3036;SDS011;1528;52.550;13.408;2022-12-29T07:02:30;12.47;;;12.07;;
3036;SDS011;1528;52.550;13.408;2022-12-29T07:05:16;17.57;;;17.00;;
3036;SDS011;1528;52.550;13.408;2022-12-29T07:08:01;15.73;;;15.13;;
3036;SDS011;1528;52.550;13.408;2022-12-29T07:10:47;15.00;;;14.60;;
3036;SDS011;1528;52.550;13.408;2022-12-29T07:13:34;15.97;;;15.33;;
3036;SDS011;1528;52.550;13.408;2022-12-29T07:16:20;13.50;;;13.00;;
3036;SDS011;1528;52.550;13.408;2022-12-29T07:19:06;14.03;;;13.53;;
3036;SDS011;1528;52.550;13.408;2022-12-29T07:21:51;12.63;;;12.23;;
3036;SDS011;1528;52.550;13.408;2022-12-29T07:24:39;13.40;;;12.90;;
3036;SDS011;1528;52.550;13.408;2022-12-29T07:27:25;14.10;;;13.60;;
3036;SDS011;1528;52.550;13.408;2022-12-29T07:30:12;12.10;;;11.50;;
3036;SDS011;1528;52.550;13.408;2022-12-29T07:32:58;13.17;;;12.67;;
3036;SDS011;1528;52.550;13.408;2022-12-29T07:35:43;11.23;;;10.83;;
3036;SDS011;1528;52.550;13.408;2022-12-29T07:38:29;16.53;;;15.73;;
3036;SDS011;1528;52.550;13.408;2022-12-29T07:41:15;12.40;;;12.00;;
3036;SDS011;1528;52.550;13.408;2022-12-29T07:44:01;16.67;;;16.07;;
3036;SDS011;1528;52.550;13.408;2022-12-29T07:46:47;14.67;;;14.27;;
3036;SDS011;1528;52.550;13.408;2022-12-29T07:49:33;14.00;;;13.57;;
3036;SDS011;1528;52.550;13.408;2022-12-29T07:52:19;12.73;;;12.33;;
3036;SDS011;1528;52.550;13.408;2022-12-29T07:55:05;12.80;;;12.27;;
3036;SDS011;1528;52.550;13.408;2022-12-29T07:57:52;15.33;;;14.83;;
3036;SDS011;1528;52.550;13.408;2022-12-29T08:00:38;11.40;;;11.00;;
3036;SDS011;1528;52.550;13.408;2022-12-29T08:03:24;11.10;;;10.70;;
3036;SDS011;1528;52.550;13.408;2022-12-29T08:06:10;11.00;;;10.60;;
3036;SDS011;1528;52.550;13.408;2022-12-29T08:08:56;10.43;;;10.03;;
3036;SDS011;1528;52.550;13.408;2022-12-29T08:11:44;11.77;;;11.30;;
3036;SDS011;1528;52.550;13.408;2022-12-29T08:14:29;10.83;;;10.43;;
3036;SDS011;1528;52.550;13.408;2022-12-29T08:17:15;12.33;;;11.83;;
3036;SDS011;1528;52.550;13.408;2022-12-29T08:20:03;16.17;;;15.57;;
3036;SDS011;1528;52.550;13.408;2022-12-29T08:22:50;12.23;;;11.83;;
3036;SDS011;1528;52.550;13.408;2022-12-29T08:25:36;11.77;;;11.37;;
3036;SDS011;1528;52.550;13.408;2022-12-29T08:28:21;13.10;;;12.50;;
3036;SDS011;1528;52.550;13.408;2022-12-29T08:31:07;11.13;;;10.67;;
3036;SDS011;1528;52.550;13.408;2022-12-29T08:33:53;11.70;;;11.20;;
3036;SDS011;1528;52.550;13.408;2022-12-29T08:36:40;14.73;;;14.13;;
3036;SDS011;1528;52.550;13.408;2022-12-29T08:39:25;11.30;;;10.80;;
3036;SDS011;1528;52.550;13.408;2022-12-29T08:42:11;14.07;;;13.47;;
3036;SDS011;1528;52.550;13.408;2022-12-29T08:44:57;15.90;;;14.93;;
3036;SDS011;1528;52.550;13.408;2022-12-29T08:47:43;13.43;;;12.83;;
3036;SDS011;1528;52.550;13.408;2022-12-29T08:50:28;13.90;;;13.27;;
3036;SDS011;1528;52.550;13.408;2022-12-29T08:53:15;12.87;;;12.17;;
3036;SDS011;1528;52.550;13.408;2022-12-29T08:56:02;11.77;;;11.17;;
3036;SDS011;1528;52.550;13.408;2022-12-29T08:58:48;13.90;;;13.40;;
3036;SDS011;1528;52.550;13.408;2022-12-29T09:01:34;14.57;;;13.60;;
3036;SDS011;1528;52.550;13.408;2022-12-29T09:04:24;12.43;;;11.93;;
3036;SDS011;1528;52.550;13.408;2022-12-29T09:07:11;14.07;;;13.50;;
3036;SDS011;1528;52.550;13.408;2022-12-29T09:09:58;12.00;;;11.50;;
3036;SDS011;1528;52.550;13.408;2022-12-29T09:12:43;16.43;;;15.40;;
3036;SDS011;1528;52.550;13.408;2022-12-29T09:15:29;12.50;;;12.00;;
3036;SDS011;1528;52.550;13.408;2022-12-29T09:18:15;12.13;;;11.63;;
3036;SDS011;1528;52.550;13.408;2022-12-29T09:21:01;13.80;;;12.67;;
3036;SDS011;1528;52.550;13.408;2022-12-29T09:23:48;15.97;;;15.27;;
3036;SDS011;1528;52.550;13.408;2022-12-29T09:26:35;12.97;;;12.20;;
3036;SDS011;1528;52.550;13.408;2022-12-29T09:29:21;13.97;;;13.47;;
3036;SDS011;1528;52.550;13.408;2022-12-29T09:32:06;10.40;;;10.00;;
3036;SDS011;1528;52.550;13.408;2022-12-29T09:34:52;12.10;;;11.60;;
3036;SDS011;1528;52.550;13.408;2022-12-29T09:37:38;11.27;;;10.80;;
3036;SDS011;1528;52.550;13.408;2022-12-29T09:40:25;12.90;;;12.20;;
3036;SDS011;1528;52.550;13.408;2022-12-29T09:43:20;11.17;;;10.77;;
3036;SDS011;1528;52.550;13.408;2022-12-29T09:46:21;11.80;;;11.30;;
3036;SDS011;1528;52.550;13.408;2022-12-29T09:49:14;11.93;;;11.53;;
3036;SDS011;1528;52.550;13.408;2022-12-29T09:52:10;12.13;;;11.73;;
3036;SDS011;1528;52.550;13.408;2022-12-29T09:55:00;11.93;;;11.33;;
3036;SDS011;1528;52.550;13.408;2022-12-29T09:57:49;12.17;;;11.67;;
3036;SDS011;1528;52.550;13.408;2022-12-29T10:00:43;12.47;;;12.03;;
3036;SDS011;1528;52.550;13.408;2022-12-29T10:03:36;17.03;;;16.47;;
3036;SDS011;1528;52.550;13.408;2022-12-29T10:06:32;14.90;;;14.40;;
3036;SDS011;1528;52.550;13.408;2022-12-29T10:09:23;12.07;;;11.67;;
3036;SDS011;1528;52.550;13.408;2022-12-29T10:12:15;12.00;;;11.50;;
3036;SDS011;1528;52.550;13.408;2022-12-29T10:15:09;12.13;;;11.73;;
3036;SDS011;1528;52.550;13.408;2022-12-29T10:18:06;14.10;;;13.60;;
3036;SDS011;1528;52.550;13.408;2022-12-29T10:21:08;12.97;;;12.43;;
3036;SDS011;1528;52.550;13.408;2022-12-29T10:24:03;17.53;;;17.03;;
3036;SDS011;1528;52.550;13.408;2022-12-29T10:26:52;13.90;;;13.40;;
3036;SDS011;1528;52.550;13.408;2022-12-29T10:29:40;16.27;;;15.77;;
3036;SDS011;1528;52.550;13.408;2022-12-29T10:32:32;12.57;;;12.13;;
3036;SDS011;1528;52.550;13.408;2022-12-29T10:35:23;13.60;;;13.10;;
3036;SDS011;1528;52.550;13.408;2022-12-29T10:38:13;18.97;;;18.10;;
3036;SDS011;1528;52.550;13.408;2022-12-29T10:41:05;17.13;;;16.63;;
3036;SDS011;1528;52.550;13.408;2022-12-29T10:43:59;14.90;;;14.33;;
3036;SDS011;1528;52.550;13.408;2022-12-29T10:46:46;16.70;;;16.13;;
3036;SDS011;1528;52.550;13.408;2022-12-29T10:49:39;16.67;;;15.97;;
3036;SDS011;1528;52.550;13.408;2022-12-29T10:52:28;20.00;;;19.20;;
3036;SDS011;1528;52.550;13.408;2022-12-29T10:55:19;15.70;;;15.10;;
3036;SDS011;1528;52.550;13.408;2022-12-29T10:58:10;17.53;;;16.70;;
3036;SDS011;1528;52.550;13.408;2022-12-29T11:00:58;17.03;;;16.50;;
3036;SDS011;1528;52.550;13.408;2022-12-29T11:03:53;20.17;;;19.57;;
3036;SDS011;1528;52.550;13.408;2022-12-29T11:06:45;17.30;;;16.70;;
3036;SDS011;1528;52.550;13.408;2022-12-29T11:09:33;19.00;;;18.40;;
3036;SDS011;1528;52.550;13.408;2022-12-29T11:12:23;17.30;;;16.80;;
3036;SDS011;1528;52.550;13.408;2022-12-29T11:15:13;19.27;;;18.67;;
3036;SDS011;1528;52.550;13.408;2022-12-29T11:18:00;16.70;;;16.00;;
3036;SDS011;1528;52.550;13.408;2022-12-29T11:20:46;18.10;;;17.60;;
3036;SDS011;1528;52.550;13.408;2022-12-29T11:23:32;17.60;;;17.00;;
3036;SDS011;1528;52.550;13.408;2022-12-29T11:26:21;14.93;;;14.33;;
3036;SDS011;1528;52.550;13.408;2022-12-29T11:29:17;11.00;;;10.50;;
3036;SDS011;1528;52.550;13.408;2022-12-29T11:32:10;16.73;;;16.23;;
3036;SDS011;1528;52.550;13.408;2022-12-29T11:34:56;17.57;;;17.07;;
3036;SDS011;1528;52.550;13.408;2022-12-29T11:37:42;20.90;;;20.20;;
3036;SDS011;1528;52.550;13.408;2022-12-29T11:40:28;19.83;;;19.17;;
3036;SDS011;1528;52.550;13.408;2022-12-29T11:43:18;14.70;;;14.20;;
3036;SDS011;1528;52.550;13.408;2022-12-29T11:46:13;16.33;;;15.63;;
3036;SDS011;1528;52.550;13.408;2022-12-29T11:49:02;15.63;;;15.03;;
3036;SDS011;1528;52.550;13.408;2022-12-29T11:51:48;12.63;;;12.23;;
3036;SDS011;1528;52.550;13.408;2022-12-29T11:54:36;10.50;;;10.00;;
3036;SDS011;1528;52.550;13.408;2022-12-29T11:57:22;17.10;;;16.40;;
3036;SDS011;1528;52.550;13.408;2022-12-29T12:00:16;13.50;;;12.90;;
3036;SDS011;1528;52.550;13.408;2022-12-29T12:03:04;12.83;;;12.33;;
3036;SDS011;1528;52.550;13.408;2022-12-29T12:05:55;16.30;;;15.60;;
3036;SDS011;1528;52.550;13.408;2022-12-29T12:08:43;15.37;;;14.77;;
3036;SDS011;1528;52.550;13.408;2022-12-29T12:11:34;15.03;;;14.43;;
3036;SDS011;1528;52.550;13.408;2022-12-29T12:14:23;15.13;;;13.80;;
3036;SDS011;1528;52.550;13.408;2022-12-29T12:17:17;17.20;;;16.70;;
3036;SDS011;1528;52.550;13.408;2022-12-29T12:20:13;20.20;;;19.30;;
3036;SDS011;1528;52.550;13.408;2022-12-29T12:23:07;16.17;;;15.57;;
3036;SDS011;1528;52.550;13.408;2022-12-29T12:26:04;16.77;;;16.10;;
3036;SDS011;1528;52.550;13.408;2022-12-29T12:28:57;14.60;;;13.90;;
3036;SDS011;1528;52.550;13.408;2022-12-29T12:31:49;15.03;;;14.33;;
3036;SDS011;1528;52.550;13.408;2022-12-29T12:34:42;15.10;;;14.50;;
3036;SDS011;1528;52.550;13.408;2022-12-29T12:37:42;15.90;;;15.40;;
3036;SDS011;1528;52.550;13.408;2022-12-29T12:40:44;17.17;;;16.57;;
3036;SDS011;1528;52.550;13.408;2022-12-29T12:43:52;17.63;;;17.13;;
3036;SDS011;1528;52.550;13.408;2022-12-29T12:46:48;15.90;;;15.40;;
3036;SDS011;1528;52.550;13.408;2022-12-29T12:59:20;14.83;;;14.23;;
3036;SDS011;1528;52.550;13.408;2022-12-29T13:02:21;15.10;;;14.70;;
3036;SDS011;1528;52.550;13.408;2022-12-29T13:05:25;14.10;;;13.60;;
3036;SDS011;1528;52.550;13.408;2022-12-29T13:08:27;15.43;;;14.93;;
3036;SDS011;1528;52.550;13.408;2022-12-29T13:11:35;15.90;;;15.40;;
3036;SDS011;1528;52.550;13.408;2022-12-29T13:14:34;15.97;;;15.57;;
3036;SDS011;1528;52.550;13.408;2022-12-29T13:17:30;14.10;;;13.70;;
3036;SDS011;1528;52.550;13.408;2022-12-29T13:20:25;14.60;;;14.10;;
3036;SDS011;1528;52.550;13.408;2022-12-29T13:23:19;17.47;;;16.97;;
3036;SDS011;1528;52.550;13.408;2022-12-29T13:26:11;15.03;;;14.63;;
3036;SDS011;1528;52.550;13.408;2022-12-29T13:29:05;15.03;;;14.53;;
3036;SDS011;1528;52.550;13.408;2022-12-29T13:32:02;15.00;;;14.50;;
3036;SDS011;1528;52.550;13.408;2022-12-29T13:35:02;13.87;;;13.37;;
3036;SDS011;1528;52.550;13.408;2022-12-29T13:38:13;13.33;;;12.93;;
3036;SDS011;1528;52.550;13.408;2022-12-29T13:41:04;14.57;;;14.07;;
3036;SDS011;1528;52.550;13.408;2022-12-29T13:43:53;16.50;;;15.90;;
3036;SDS011;1528;52.550;13.408;2022-12-29T13:46:40;13.07;;;12.67;;
3036;SDS011;1528;52.550;13.408;2022-12-29T13:49:30;13.10;;;12.70;;
3036;SDS011;1528;52.550;13.408;2022-12-29T13:52:19;12.40;;;11.97;;
3036;SDS011;1528;52.550;13.408;2022-12-29T13:55:20;13.67;;;13.27;;
3036;SDS011;1528;52.550;13.408;2022-12-29T13:58:12;13.10;;;12.70;;
3036;SDS011;1528;52.550;13.408;2022-12-29T14:01:07;12.33;;;11.93;;
3036;SDS011;1528;52.550;13.408;2022-12-29T14:03:58;12.10;;;11.60;;
3036;SDS011;1528;52.550;13.408;2022-12-29T14:06:46;13.87;;;13.37;;
3036;SDS011;1528;52.550;13.408;2022-12-29T14:09:45;15.93;;;15.43;;
3036;SDS011;1528;52.550;13.408;2022-12-29T14:12:35;15.60;;;15.10;;
3036;SDS011;1528;52.550;13.408;2022-12-29T14:15:23;15.10;;;14.60;;
3036;SDS011;1528;52.550;13.408;2022-12-29T14:18:12;15.50;;;14.87;;
3036;SDS011;1528;52.550;13.408;2022-12-29T14:21:01;15.27;;;14.73;;
3036;SDS011;1528;52.550;13.408;2022-12-29T14:23:53;14.20;;;13.73;;
3036;SDS011;1528;52.550;13.408;2022-12-29T14:26:39;13.63;;;13.03;;
3036;SDS011;1528;52.550;13.408;2022-12-29T14:32:36;14.83;;;14.20;;
3036;SDS011;1528;52.550;13.408;2022-12-29T14:35:36;11.83;;;11.23;;
3036;SDS011;1528;52.550;13.408;2022-12-29T14:38:25;12.60;;;11.90;;
3036;SDS011;1528;52.550;13.408;2022-12-29T14:44:24;9.60;;;9.20;;
3036;SDS011;1528;52.550;13.408;2022-12-29T14:47:12;14.67;;;14.17;;
3036;SDS011;1528;52.550;13.408;2022-12-29T14:50:04;8.93;;;8.60;;
3036;SDS011;1528;52.550;13.408;2022-12-29T14:52:52;10.00;;;9.50;;
3036;SDS011;1528;52.550;13.408;2022-12-29T14:55:39;11.43;;;11.03;;
3036;SDS011;1528;52.550;13.408;2022-12-29T14:58:26;11.93;;;11.43;;
3036;SDS011;1528;52.550;13.408;2022-12-29T15:04:25;14.03;;;13.43;;
3036;SDS011;1528;52.550;13.408;2022-12-29T15:07:15;14.43;;;13.93;;
3036;SDS011;1528;52.550;13.408;2022-12-29T15:10:04;15.90;;;15.40;;
3036;SDS011;1528;52.550;13.408;2022-12-29T15:13:00;14.87;;;14.37;;
3036;SDS011;1528;52.550;13.408;2022-12-29T15:15:48;13.60;;;13.10;;
3036;SDS011;1528;52.550;13.408;2022-12-29T15:18:35;13.33;;;12.73;;
3036;SDS011;1528;52.550;13.408;2022-12-29T15:21:25;11.50;;;11.10;;
3036;SDS011;1528;52.550;13.408;2022-12-29T15:24:14;11.40;;;10.90;;
3036;SDS011;1528;52.550;13.408;2022-12-29T15:27:02;10.50;;;10.10;;
3036;SDS011;1528;52.550;13.408;2022-12-29T15:29:55;9.73;;;9.40;;
3036;SDS011;1528;52.550;13.408;2022-12-29T15:32:43;10.77;;;10.07;;
3036;SDS011;1528;52.550;13.408;2022-12-29T15:35:30;10.53;;;9.83;;
3036;SDS011;1528;52.550;13.408;2022-12-29T15:38:22;10.23;;;9.73;;
3036;SDS011;1528;52.550;13.408;2022-12-29T15:41:15;10.20;;;9.60;;
3036;SDS011;1528;52.550;13.408;2022-12-29T15:44:11;9.23;;;8.93;;
3036;SDS011;1528;52.550;13.408;2022-12-29T15:47:02;10.17;;;9.87;;
3036;SDS011;1528;52.550;13.408;2022-12-29T15:49:49;11.30;;;10.80;;
3036;SDS011;1528;52.550;13.408;2022-12-29T15:52:35;10.63;;;10.07;;
3036;SDS011;1528;52.550;13.408;2022-12-29T15:55:27;9.50;;;9.17;;
3036;SDS011;1528;52.550;13.408;2022-12-29T15:58:18;10.77;;;10.27;;
3036;SDS011;1528;52.550;13.408;2022-12-29T16:01:15;11.47;;;10.97;;
3036;SDS011;1528;52.550;13.408;2022-12-29T16:04:03;9.43;;;8.93;;
3036;SDS011;1528;52.550;13.408;2022-12-29T16:06:54;10.17;;;9.77;;
3036;SDS011;1528;52.550;13.408;2022-12-29T16:09:42;9.17;;;8.67;;
3036;SDS011;1528;52.550;13.408;2022-12-29T16:12:31;9.53;;;8.73;;
3036;SDS011;1528;52.550;13.408;2022-12-29T16:15:18;9.57;;;9.07;;
3036;SDS011;1528;52.550;13.408;2022-12-29T16:18:05;9.00;;;8.50;;
3036;SDS011;1528;52.550;13.408;2022-12-29T16:20:50;10.20;;;9.70;;
3036;SDS011;1528;52.550;13.408;2022-12-29T16:23:36;9.73;;;9.33;;
3036;SDS011;1528;52.550;13.408;2022-12-29T16:26:22;8.23;;;7.83;;
3036;SDS011;1528;52.550;13.408;2022-12-29T16:29:12;9.43;;;8.93;;
3036;SDS011;1528;52.550;13.408;2022-12-29T16:31:59;8.80;;;8.40;;
3036;SDS011;1528;52.550;13.408;2022-12-29T16:34:46;8.70;;;8.20;;
3036;SDS011;1528;52.550;13.408;2022-12-29T16:37:33;7.83;;;7.53;;
3036;SDS011;1528;52.550;13.408;2022-12-29T16:40:23;8.10;;;7.70;;
3036;SDS011;1528;52.550;13.408;2022-12-29T16:43:18;8.77;;;8.30;;
3036;SDS011;1528;52.550;13.408;2022-12-29T16:46:21;9.87;;;9.47;;
3036;SDS011;1528;52.550;13.408;2022-12-29T16:49:12;9.50;;;8.90;;
3036;SDS011;1528;52.550;13.408;2022-12-29T16:52:00;9.60;;;9.00;;
3036;SDS011;1528;52.550;13.408;2022-12-29T16:54:56;8.80;;;8.30;;
3036;SDS011;1528;52.550;13.408;2022-12-29T16:57:44;9.90;;;9.50;;
3036;SDS011;1528;52.550;13.408;2022-12-29T17:00:34;9.73;;;9.30;;
3036;SDS011;1528;52.550;13.408;2022-12-29T17:03:22;9.73;;;9.30;;
3036;SDS011;1528;52.550;13.408;2022-12-29T17:06:12;9.90;;;9.40;;
3036;SDS011;1528;52.550;13.408;2022-12-29T17:09:00;9.57;;;9.07;;
3036;SDS011;1528;52.550;13.408;2022-12-29T17:11:46;10.57;;;10.00;;
3036;SDS011;1528;52.550;13.408;2022-12-29T17:14:40;10.43;;;10.03;;
3036;SDS011;1528;52.550;13.408;2022-12-29T17:17:30;8.47;;;8.07;;